sensor_id;sensor_type;location;lat;lon;timestamp;P1;durP1;ratioP1;P2;durP2;ratioP2
20721;SDS011;10522;52.198;9.890;2023-07-16T00:02:09;6.80;;;3.73;;
20721;SDS011;10522;52.198;9.890;2023-07-16T00:04:35;5.80;;;3.33;;
20721;SDS011;10522;52.198;9.890;2023-07-16T00:07:01;5.07;;;3.53;;
20721;SDS011;10522;52.198;9.890;2023-07-16T00:09:26;4.37;;;3.40;;
20721;SDS011;10522;52.198;9.890;2023-07-16T00:11:53;8.50;;;3.77;;
20721;SDS011;10522;52.198;9.890;2023-07-16T00:14:18;5.50;;;3.40;;
20721;SDS011;10522;52.198;9.890;2023-07-16T00:16:44;6.47;;;3.97;;
20721;SDS011;10522;52.198;9.890;2023-07-16T00:19:10;5.53;;;4.10;;
20721;SDS011;10522;52.198;9.890;2023-07-16T00:21:36;3.77;;;3.37;;
20721;SDS011;10522;52.198;9.890;2023-07-16T00:24:02;6.53;;;3.80;;
20721;SDS011;10522;52.198;9.890;2023-07-16T00:26:28;5.40;;;3.30;;
20721;SDS011;10522;52.198;9.890;2023-07-16T00:28:54;4.70;;;3.67;;
20721;SDS011;10522;52.198;9.890;2023-07-16T00:31:19;8.30;;;3.63;;
20721;SDS011;10522;52.198;9.890;2023-07-16T00:33:45;5.10;;;4.10;;
20721;SDS011;10522;52.198;9.890;2023-07-16T00:36:11;8.97;;;3.63;;
20721;SDS011;10522;52.198;9.890;2023-07-16T00:38:36;3.60;;;3.27;;
20721;SDS011;10522;52.198;9.890;2023-07-16T00:41:02;5.27;;;3.20;;
20721;SDS011;10522;52.198;9.890;2023-07-16T00:43:27;6.17;;;3.27;;
20721;SDS011;10522;52.198;9.890;2023-07-16T00:45:53;5.10;;;3.17;;
20721;SDS011;10522;52.198;9.890;2023-07-16T00:48:19;6.30;;;3.30;;
20721;SDS011;10522;52.198;9.890;2023-07-16T00:50:45;5.37;;;3.17;;
20721;SDS011;10522;52.198;9.890;2023-07-16T00:53:11;3.63;;;3.23;;
20721;SDS011;10522;52.198;9.890;2023-07-16T00:55:37;3.67;;;3.33;;
20721;SDS011;10522;52.198;9.890;2023-07-16T00:58:05;3.97;;;3.13;;
20721;SDS011;10522;52.198;9.890;2023-07-16T01:00:32;8.27;;;3.57;;
20721;SDS011;10522;52.198;9.890;2023-07-16T01:02:58;6.87;;;3.13;;
20721;SDS011;10522;52.198;9.890;2023-07-16T01:05:25;4.47;;;3.47;;
20721;SDS011;10522;52.198;9.890;2023-07-16T01:08:00;4.03;;;2.50;;
20721;SDS011;10522;52.198;9.890;2023-07-16T01:10:29;4.53;;;2.47;;
20721;SDS011;10522;52.198;9.890;2023-07-16T01:12:56;4.47;;;2.40;;
20721;SDS011;10522;52.198;9.890;2023-07-16T01:15:23;3.77;;;2.37;;
20721;SDS011;10522;52.198;9.890;2023-07-16T01:17:49;3.17;;;2.17;;
20721;SDS011;10522;52.198;9.890;2023-07-16T01:20:14;4.03;;;2.20;;
20721;SDS011;10522;52.198;9.890;2023-07-16T01:22:48;6.90;;;2.70;;
20721;SDS011;10522;52.198;9.890;2023-07-16T01:28:11;3.03;;;1.93;;
20721;SDS011;10522;52.198;9.890;2023-07-16T01:30:51;2.80;;;1.93;;
20721;SDS011;10522;52.198;9.890;2023-07-16T01:33:19;3.97;;;2.20;;
20721;SDS011;10522;52.198;9.890;2023-07-16T01:35:46;9.23;;;2.50;;
20721;SDS011;10522;52.198;9.890;2023-07-16T01:38:13;14.20;;;3.27;;
20721;SDS011;10522;52.198;9.890;2023-07-16T01:40:41;10.87;;;3.17;;
20721;SDS011;10522;52.198;9.890;2023-07-16T01:43:07;13.07;;;2.93;;
20721;SDS011;10522;52.198;9.890;2023-07-16T01:45:32;12.10;;;3.60;;
20721;SDS011;10522;52.198;9.890;2023-07-16T01:51:03;5.77;;;2.50;;
20721;SDS011;10522;52.198;9.890;2023-07-16T01:53:30;5.67;;;2.47;;
20721;SDS011;10522;52.198;9.890;2023-07-16T01:55:56;2.87;;;1.93;;
20721;SDS011;10522;52.198;9.890;2023-07-16T01:58:22;6.27;;;2.00;;
20721;SDS011;10522;52.198;9.890;2023-07-16T02:00:49;4.67;;;2.10;;
20721;SDS011;10522;52.198;9.890;2023-07-16T02:03:15;3.60;;;2.07;;
20721;SDS011;10522;52.198;9.890;2023-07-16T02:05:41;3.60;;;2.13;;
20721;SDS011;10522;52.198;9.890;2023-07-16T02:08:06;6.90;;;2.40;;
20721;SDS011;10522;52.198;9.890;2023-07-16T02:10:32;6.93;;;2.10;;
20721;SDS011;10522;52.198;9.890;2023-07-16T02:12:58;8.73;;;2.20;;
20721;SDS011;10522;52.198;9.890;2023-07-16T02:15:23;5.77;;;2.67;;
20721;SDS011;10522;52.198;9.890;2023-07-16T02:17:49;7.23;;;2.53;;
20721;SDS011;10522;52.198;9.890;2023-07-16T02:20:14;3.40;;;2.33;;
20721;SDS011;10522;52.198;9.890;2023-07-16T02:22:40;5.10;;;2.50;;
20721;SDS011;10522;52.198;9.890;2023-07-16T02:25:06;6.97;;;2.70;;
20721;SDS011;10522;52.198;9.890;2023-07-16T02:27:31;5.10;;;2.43;;
20721;SDS011;10522;52.198;9.890;2023-07-16T02:29:57;3.63;;;2.60;;
20721;SDS011;10522;52.198;9.890;2023-07-16T02:32:23;5.03;;;2.23;;
20721;SDS011;10522;52.198;9.890;2023-07-16T02:34:48;7.83;;;2.70;;
20721;SDS011;10522;52.198;9.890;2023-07-16T02:37:14;4.37;;;2.60;;
20721;SDS011;10522;52.198;9.890;2023-07-16T02:39:41;6.30;;;2.23;;
20721;SDS011;10522;52.198;9.890;2023-07-16T02:42:07;5.70;;;2.40;;
20721;SDS011;10522;52.198;9.890;2023-07-16T02:44:33;9.07;;;2.63;;
20721;SDS011;10522;52.198;9.890;2023-07-16T02:47:03;6.97;;;2.63;;
20721;SDS011;10522;52.198;9.890;2023-07-16T02:49:29;5.77;;;2.40;;
20721;SDS011;10522;52.198;9.890;2023-07-16T02:51:54;4.30;;;2.80;;
20721;SDS011;10522;52.198;9.890;2023-07-16T02:54:20;4.83;;;2.80;;
20721;SDS011;10522;52.198;9.890;2023-07-16T02:56:46;4.53;;;2.30;;
20721;SDS011;10522;52.198;9.890;2023-07-16T02:59:12;5.13;;;2.50;;
20721;SDS011;10522;52.198;9.890;2023-07-16T03:01:38;3.37;;;2.47;;
20721;SDS011;10522;52.198;9.890;2023-07-16T03:04:03;5.10;;;2.50;;
20721;SDS011;10522;52.198;9.890;2023-07-16T03:06:29;4.00;;;2.40;;
20721;SDS011;10522;52.198;9.890;2023-07-16T03:08:54;4.17;;;2.60;;
20721;SDS011;10522;52.198;9.890;2023-07-16T03:11:20;7.30;;;2.70;;
20721;SDS011;10522;52.198;9.890;2023-07-16T03:13:46;5.27;;;2.40;;
20721;SDS011;10522;52.198;9.890;2023-07-16T03:16:11;7.87;;;2.67;;
20721;SDS011;10522;52.198;9.890;2023-07-16T03:18:37;3.63;;;2.70;;
20721;SDS011;10522;52.198;9.890;2023-07-16T03:21:02;6.63;;;2.80;;
20721;SDS011;10522;52.198;9.890;2023-07-16T03:23:28;4.00;;;2.70;;
20721;SDS011;10522;52.198;9.890;2023-07-16T03:25:54;4.30;;;2.93;;
20721;SDS011;10522;52.198;9.890;2023-07-16T03:28:19;9.37;;;2.87;;
20721;SDS011;10522;52.198;9.890;2023-07-16T03:30:49;5.50;;;2.67;;
20721;SDS011;10522;52.198;9.890;2023-07-16T03:33:15;4.00;;;2.33;;
20721;SDS011;10522;52.198;9.890;2023-07-16T03:35:46;5.00;;;2.73;;
20721;SDS011;10522;52.198;9.890;2023-07-16T03:38:13;5.40;;;2.50;;
20721;SDS011;10522;52.198;9.890;2023-07-16T03:40:39;9.93;;;3.17;;
20721;SDS011;10522;52.198;9.890;2023-07-16T03:43:07;6.30;;;2.57;;
20721;SDS011;10522;52.198;9.890;2023-07-16T03:45:33;6.30;;;2.70;;
20721;SDS011;10522;52.198;9.890;2023-07-16T03:47:58;15.60;;;2.57;;
20721;SDS011;10522;52.198;9.890;2023-07-16T03:50:24;6.30;;;2.10;;
20721;SDS011;10522;52.198;9.890;2023-07-16T03:52:50;3.93;;;2.67;;
20721;SDS011;10522;52.198;9.890;2023-07-16T03:55:15;4.50;;;2.73;;
20721;SDS011;10522;52.198;9.890;2023-07-16T03:57:41;5.80;;;2.70;;
20721;SDS011;10522;52.198;9.890;2023-07-16T04:00:07;5.60;;;2.87;;
20721;SDS011;10522;52.198;9.890;2023-07-16T04:02:34;5.43;;;2.57;;
20721;SDS011;10522;52.198;9.890;2023-07-16T04:05:00;7.73;;;2.83;;
20721;SDS011;10522;52.198;9.890;2023-07-16T04:07:27;5.40;;;2.67;;
20721;SDS011;10522;52.198;9.890;2023-07-16T04:09:52;5.57;;;2.80;;
20721;SDS011;10522;52.198;9.890;2023-07-16T04:12:18;6.93;;;2.57;;
20721;SDS011;10522;52.198;9.890;2023-07-16T04:14:44;5.03;;;2.40;;
20721;SDS011;10522;52.198;9.890;2023-07-16T04:17:09;3.50;;;3.07;;
20721;SDS011;10522;52.198;9.890;2023-07-16T04:19:35;5.87;;;2.60;;
20721;SDS011;10522;52.198;9.890;2023-07-16T04:22:01;3.93;;;3.00;;
20721;SDS011;10522;52.198;9.890;2023-07-16T04:24:26;7.33;;;2.60;;
20721;SDS011;10522;52.198;9.890;2023-07-16T04:26:52;4.33;;;2.60;;
20721;SDS011;10522;52.198;9.890;2023-07-16T04:29:18;5.43;;;2.43;;
20721;SDS011;10522;52.198;9.890;2023-07-16T04:31:44;4.57;;;2.87;;
20721;SDS011;10522;52.198;9.890;2023-07-16T04:34:10;7.00;;;2.93;;
20721;SDS011;10522;52.198;9.890;2023-07-16T04:36:35;10.90;;;2.73;;
20721;SDS011;10522;52.198;9.890;2023-07-16T04:39:01;4.07;;;2.70;;
20721;SDS011;10522;52.198;9.890;2023-07-16T04:41:27;8.43;;;3.10;;
20721;SDS011;10522;52.198;9.890;2023-07-16T04:43:53;6.70;;;2.43;;
20721;SDS011;10522;52.198;9.890;2023-07-16T04:46:18;4.13;;;2.37;;
20721;SDS011;10522;52.198;9.890;2023-07-16T04:48:44;4.80;;;2.77;;
20721;SDS011;10522;52.198;9.890;2023-07-16T04:51:09;8.17;;;2.63;;
20721;SDS011;10522;52.198;9.890;2023-07-16T04:53:35;5.90;;;2.27;;
20721;SDS011;10522;52.198;9.890;2023-07-16T04:56:01;7.87;;;2.67;;
20721;SDS011;10522;52.198;9.890;2023-07-16T04:58:26;5.40;;;2.73;;
20721;SDS011;10522;52.198;9.890;2023-07-16T05:00:52;7.40;;;2.90;;
20721;SDS011;10522;52.198;9.890;2023-07-16T05:03:17;6.93;;;2.43;;
20721;SDS011;10522;52.198;9.890;2023-07-16T05:05:43;4.73;;;2.27;;
20721;SDS011;10522;52.198;9.890;2023-07-16T05:08:09;6.53;;;2.70;;
20721;SDS011;10522;52.198;9.890;2023-07-16T05:10:35;7.90;;;2.93;;
20721;SDS011;10522;52.198;9.890;2023-07-16T05:13:01;7.00;;;2.77;;
20721;SDS011;10522;52.198;9.890;2023-07-16T05:15:28;6.73;;;2.80;;
20721;SDS011;10522;52.198;9.890;2023-07-16T05:17:54;4.33;;;2.37;;
20721;SDS011;10522;52.198;9.890;2023-07-16T05:20:22;7.00;;;2.40;;
20721;SDS011;10522;52.198;9.890;2023-07-16T05:22:48;8.30;;;2.73;;
20721;SDS011;10522;52.198;9.890;2023-07-16T05:25:14;7.53;;;2.80;;
20721;SDS011;10522;52.198;9.890;2023-07-16T05:27:39;7.83;;;2.80;;
20721;SDS011;10522;52.198;9.890;2023-07-16T05:30:05;5.33;;;2.43;;
20721;SDS011;10522;52.198;9.890;2023-07-16T05:32:31;6.40;;;2.97;;
20721;SDS011;10522;52.198;9.890;2023-07-16T05:34:57;8.37;;;2.57;;
20721;SDS011;10522;52.198;9.890;2023-07-16T05:37:23;8.50;;;2.83;;
20721;SDS011;10522;52.198;9.890;2023-07-16T05:39:48;8.53;;;2.63;;
20721;SDS011;10522;52.198;9.890;2023-07-16T05:42:14;6.73;;;2.37;;
20721;SDS011;10522;52.198;9.890;2023-07-16T05:44:40;11.57;;;2.73;;
20721;SDS011;10522;52.198;9.890;2023-07-16T05:47:06;5.80;;;2.70;;
20721;SDS011;10522;52.198;9.890;2023-07-16T05:49:33;8.47;;;3.00;;
20721;SDS011;10522;52.198;9.890;2023-07-16T05:51:58;6.90;;;3.00;;
20721;SDS011;10522;52.198;9.890;2023-07-16T05:54:24;7.40;;;2.70;;
20721;SDS011;10522;52.198;9.890;2023-07-16T05:56:50;3.57;;;2.10;;
20721;SDS011;10522;52.198;9.890;2023-07-16T05:59:15;7.93;;;2.97;;
20721;SDS011;10522;52.198;9.890;2023-07-16T06:01:41;5.30;;;2.47;;
20721;SDS011;10522;52.198;9.890;2023-07-16T06:04:07;7.20;;;2.83;;
20721;SDS011;10522;52.198;9.890;2023-07-16T06:06:32;5.67;;;2.60;;
20721;SDS011;10522;52.198;9.890;2023-07-16T06:08:58;3.70;;;2.40;;
20721;SDS011;10522;52.198;9.890;2023-07-16T06:11:23;8.87;;;2.50;;
20721;SDS011;10522;52.198;9.890;2023-07-16T06:13:49;3.33;;;2.40;;
20721;SDS011;10522;52.198;9.890;2023-07-16T06:16:15;8.53;;;2.43;;
20721;SDS011;10522;52.198;9.890;2023-07-16T06:18:40;5.10;;;2.63;;
20721;SDS011;10522;52.198;9.890;2023-07-16T06:21:06;4.43;;;2.43;;
20721;SDS011;10522;52.198;9.890;2023-07-16T06:23:31;6.47;;;2.50;;
20721;SDS011;10522;52.198;9.890;2023-07-16T06:25:57;8.77;;;2.97;;
20721;SDS011;10522;52.198;9.890;2023-07-16T06:28:23;7.60;;;2.70;;
20721;SDS011;10522;52.198;9.890;2023-07-16T06:30:49;6.43;;;2.40;;
20721;SDS011;10522;52.198;9.890;2023-07-16T06:33:17;6.07;;;2.73;;
20721;SDS011;10522;52.198;9.890;2023-07-16T06:35:46;8.00;;;2.87;;
20721;SDS011;10522;52.198;9.890;2023-07-16T06:38:13;8.20;;;2.83;;
20721;SDS011;10522;52.198;9.890;2023-07-16T06:40:39;3.73;;;2.57;;
20721;SDS011;10522;52.198;9.890;2023-07-16T06:43:05;4.87;;;2.10;;
20721;SDS011;10522;52.198;9.890;2023-07-16T06:45:30;7.73;;;4.17;;
20721;SDS011;10522;52.198;9.890;2023-07-16T06:47:56;9.60;;;2.60;;
20721;SDS011;10522;52.198;9.890;2023-07-16T06:50:22;3.73;;;2.57;;
20721;SDS011;10522;52.198;9.890;2023-07-16T06:52:47;9.57;;;3.30;;
20721;SDS011;10522;52.198;9.890;2023-07-16T06:55:13;3.97;;;2.50;;
20721;SDS011;10522;52.198;9.890;2023-07-16T06:57:38;9.00;;;3.97;;
20721;SDS011;10522;52.198;9.890;2023-07-16T07:00:05;4.20;;;2.30;;
20721;SDS011;10522;52.198;9.890;2023-07-16T07:02:35;4.20;;;2.20;;
20721;SDS011;10522;52.198;9.890;2023-07-16T07:05:01;4.23;;;2.43;;
20721;SDS011;10522;52.198;9.890;2023-07-16T07:07:27;4.77;;;2.40;;
20721;SDS011;10522;52.198;9.890;2023-07-16T07:09:52;5.67;;;2.50;;
20721;SDS011;10522;52.198;9.890;2023-07-16T07:12:18;6.00;;;2.80;;
20721;SDS011;10522;52.198;9.890;2023-07-16T07:14:43;4.63;;;2.40;;
20721;SDS011;10522;52.198;9.890;2023-07-16T07:17:09;5.80;;;2.27;;
20721;SDS011;10522;52.198;9.890;2023-07-16T07:19:35;9.23;;;3.30;;
20721;SDS011;10522;52.198;9.890;2023-07-16T07:22:00;6.77;;;2.23;;
20721;SDS011;10522;52.198;9.890;2023-07-16T07:24:26;8.17;;;2.43;;
20721;SDS011;10522;52.198;9.890;2023-07-16T07:26:52;5.03;;;2.50;;
20721;SDS011;10522;52.198;9.890;2023-07-16T07:29:17;5.43;;;2.10;;
20721;SDS011;10522;52.198;9.890;2023-07-16T07:31:43;6.57;;;2.10;;
20721;SDS011;10522;52.198;9.890;2023-07-16T07:34:09;6.47;;;2.23;;
20721;SDS011;10522;52.198;9.890;2023-07-16T07:36:34;8.40;;;2.27;;
20721;SDS011;10522;52.198;9.890;2023-07-16T07:39:00;6.60;;;2.20;;
20721;SDS011;10522;52.198;9.890;2023-07-16T07:41:25;6.33;;;2.10;;
20721;SDS011;10522;52.198;9.890;2023-07-16T07:43:51;5.13;;;2.40;;
20721;SDS011;10522;52.198;9.890;2023-07-16T07:46:16;6.00;;;2.40;;
20721;SDS011;10522;52.198;9.890;2023-07-16T07:48:42;7.40;;;2.23;;
20721;SDS011;10522;52.198;9.890;2023-07-16T07:51:08;8.93;;;2.83;;
20721;SDS011;10522;52.198;9.890;2023-07-16T07:53:33;7.63;;;2.80;;
20721;SDS011;10522;52.198;9.890;2023-07-16T07:55:59;8.97;;;2.27;;
20721;SDS011;10522;52.198;9.890;2023-07-16T07:58:24;7.93;;;2.77;;
20721;SDS011;10522;52.198;9.890;2023-07-16T08:00:50;6.63;;;2.57;;
20721;SDS011;10522;52.198;9.890;2023-07-16T08:03:16;6.07;;;2.60;;
20721;SDS011;10522;52.198;9.890;2023-07-16T08:05:41;7.07;;;2.87;;
20721;SDS011;10522;52.198;9.890;2023-07-16T08:08:07;6.37;;;2.90;;
20721;SDS011;10522;52.198;9.890;2023-07-16T08:10:33;7.80;;;3.07;;
20721;SDS011;10522;52.198;9.890;2023-07-16T08:12:58;7.67;;;2.90;;
20721;SDS011;10522;52.198;9.890;2023-07-16T08:15:24;7.77;;;2.90;;
20721;SDS011;10522;52.198;9.890;2023-07-16T08:17:50;7.33;;;2.30;;
20721;SDS011;10522;52.198;9.890;2023-07-16T08:20:15;7.87;;;2.37;;
20721;SDS011;10522;52.198;9.890;2023-07-16T08:22:41;6.10;;;2.40;;
20721;SDS011;10522;52.198;9.890;2023-07-16T08:25:07;8.37;;;2.60;;
20721;SDS011;10522;52.198;9.890;2023-07-16T08:27:33;5.80;;;2.50;;
20721;SDS011;10522;52.198;9.890;2023-07-16T08:29:59;8.37;;;2.63;;
20721;SDS011;10522;52.198;9.890;2023-07-16T08:32:25;6.70;;;2.87;;
20721;SDS011;10522;52.198;9.890;2023-07-16T08:34:50;11.57;;;2.93;;
20721;SDS011;10522;52.198;9.890;2023-07-16T08:37:16;12.23;;;2.73;;
20721;SDS011;10522;52.198;9.890;2023-07-16T08:39:42;5.70;;;2.37;;
20721;SDS011;10522;52.198;9.890;2023-07-16T08:42:08;8.67;;;2.60;;
20721;SDS011;10522;52.198;9.890;2023-07-16T08:44:38;5.77;;;2.33;;
20721;SDS011;10522;52.198;9.890;2023-07-16T08:47:05;3.63;;;2.10;;
20721;SDS011;10522;52.198;9.890;2023-07-16T08:49:31;6.43;;;2.40;;
20721;SDS011;10522;52.198;9.890;2023-07-16T08:51:59;6.23;;;2.57;;
20721;SDS011;10522;52.198;9.890;2023-07-16T08:54:26;5.93;;;2.73;;
20721;SDS011;10522;52.198;9.890;2023-07-16T08:56:52;6.27;;;2.70;;
20721;SDS011;10522;52.198;9.890;2023-07-16T08:59:18;5.90;;;2.40;;
20721;SDS011;10522;52.198;9.890;2023-07-16T09:01:44;6.10;;;2.80;;
20721;SDS011;10522;52.198;9.890;2023-07-16T09:04:12;8.80;;;2.63;;
20721;SDS011;10522;52.198;9.890;2023-07-16T09:06:38;7.80;;;2.63;;
20721;SDS011;10522;52.198;9.890;2023-07-16T09:09:04;4.67;;;2.57;;
20721;SDS011;10522;52.198;9.890;2023-07-16T09:11:30;5.20;;;2.40;;
20721;SDS011;10522;52.198;9.890;2023-07-16T09:13:55;8.10;;;2.93;;
20721;SDS011;10522;52.198;9.890;2023-07-16T09:16:21;6.93;;;2.40;;
20721;SDS011;10522;52.198;9.890;2023-07-16T09:18:46;4.10;;;2.20;;
20721;SDS011;10522;52.198;9.890;2023-07-16T09:21:12;9.77;;;3.07;;
20721;SDS011;10522;52.198;9.890;2023-07-16T09:23:39;8.40;;;2.43;;
20721;SDS011;10522;52.198;9.890;2023-07-16T09:26:06;5.77;;;2.60;;
20721;SDS011;10522;52.198;9.890;2023-07-16T09:28:32;4.93;;;2.40;;
20721;SDS011;10522;52.198;9.890;2023-07-16T09:31:05;6.67;;;2.33;;
20721;SDS011;10522;52.198;9.890;2023-07-16T09:33:31;4.43;;;2.13;;
20721;SDS011;10522;52.198;9.890;2023-07-16T09:35:57;4.97;;;2.03;;
20721;SDS011;10522;52.198;9.890;2023-07-16T09:38:23;5.83;;;2.27;;
20721;SDS011;10522;52.198;9.890;2023-07-16T09:40:49;6.80;;;2.20;;
20721;SDS011;10522;52.198;9.890;2023-07-16T09:43:17;7.53;;;2.57;;
20721;SDS011;10522;52.198;9.890;2023-07-16T09:45:43;6.50;;;2.27;;
20721;SDS011;10522;52.198;9.890;2023-07-16T09:48:09;6.40;;;2.57;;
20721;SDS011;10522;52.198;9.890;2023-07-16T09:50:36;5.17;;;2.37;;
20721;SDS011;10522;52.198;9.890;2023-07-16T09:53:08;6.50;;;3.00;;
20721;SDS011;10522;52.198;9.890;2023-07-16T09:55:35;4.33;;;2.23;;
20721;SDS011;10522;52.198;9.890;2023-07-16T09:58:03;4.57;;;2.20;;
20721;SDS011;10522;52.198;9.890;2023-07-16T10:00:34;8.57;;;2.30;;
20721;SDS011;10522;52.198;9.890;2023-07-16T10:03:05;4.67;;;2.33;;
20721;SDS011;10522;52.198;9.890;2023-07-16T10:05:35;4.77;;;2.23;;
20721;SDS011;10522;52.198;9.890;2023-07-16T10:08:02;7.93;;;2.73;;
20721;SDS011;10522;52.198;9.890;2023-07-16T10:13:13;6.07;;;2.77;;
20721;SDS011;10522;52.198;9.890;2023-07-16T10:15:39;6.10;;;2.37;;
20721;SDS011;10522;52.198;9.890;2023-07-16T10:18:22;6.07;;;2.60;;
20721;SDS011;10522;52.198;9.890;2023-07-16T10:21:00;4.93;;;2.13;;
20721;SDS011;10522;52.198;9.890;2023-07-16T10:23:36;6.23;;;2.70;;
20721;SDS011;10522;52.198;9.890;2023-07-16T10:26:04;3.30;;;2.27;;
20721;SDS011;10522;52.198;9.890;2023-07-16T10:28:34;7.70;;;2.60;;
20721;SDS011;10522;52.198;9.890;2023-07-16T10:31:01;4.07;;;2.37;;
20721;SDS011;10522;52.198;9.890;2023-07-16T10:33:27;3.23;;;1.73;;
20721;SDS011;10522;52.198;9.890;2023-07-16T10:35:53;8.13;;;2.77;;
20721;SDS011;10522;52.198;9.890;2023-07-16T10:38:23;4.73;;;2.30;;
20721;SDS011;10522;52.198;9.890;2023-07-16T10:40:49;4.43;;;2.57;;
20721;SDS011;10522;52.198;9.890;2023-07-16T10:43:15;4.43;;;2.40;;
20721;SDS011;10522;52.198;9.890;2023-07-16T10:45:41;6.83;;;2.40;;
20721;SDS011;10522;52.198;9.890;2023-07-16T10:48:06;4.50;;;2.50;;
20721;SDS011;10522;52.198;9.890;2023-07-16T10:50:32;4.33;;;2.97;;
20721;SDS011;10522;52.198;9.890;2023-07-16T10:52:59;5.20;;;2.50;;
20721;SDS011;10522;52.198;9.890;2023-07-16T10:55:26;7.77;;;2.63;;
20721;SDS011;10522;52.198;9.890;2023-07-16T10:57:53;6.80;;;3.03;;
20721;SDS011;10522;52.198;9.890;2023-07-16T11:00:19;4.97;;;2.93;;
20721;SDS011;10522;52.198;9.890;2023-07-16T11:02:46;6.33;;;2.83;;
20721;SDS011;10522;52.198;9.890;2023-07-16T11:05:14;4.67;;;2.70;;
20721;SDS011;10522;52.198;9.890;2023-07-16T11:07:47;6.37;;;2.90;;
20721;SDS011;10522;52.198;9.890;2023-07-16T11:10:17;5.13;;;2.67;;
20721;SDS011;10522;52.198;9.890;2023-07-16T11:12:43;7.87;;;2.97;;
20721;SDS011;10522;52.198;9.890;2023-07-16T11:15:09;3.43;;;3.10;;
20721;SDS011;10522;52.198;9.890;2023-07-16T11:17:39;3.87;;;2.73;;
20721;SDS011;10522;52.198;9.890;2023-07-16T11:20:06;6.00;;;3.00;;
20721;SDS011;10522;52.198;9.890;2023-07-16T11:22:33;4.50;;;2.80;;
20721;SDS011;10522;52.198;9.890;2023-07-16T11:25:03;5.67;;;3.30;;
20721;SDS011;10522;52.198;9.890;2023-07-16T11:27:35;7.70;;;3.50;;
20721;SDS011;10522;52.198;9.890;2023-07-16T11:30:01;6.33;;;3.20;;
20721;SDS011;10522;52.198;9.890;2023-07-16T11:32:35;4.27;;;2.93;;
20721;SDS011;10522;52.198;9.890;2023-07-16T11:35:02;5.80;;;3.33;;
20721;SDS011;10522;52.198;9.890;2023-07-16T11:37:30;4.00;;;3.00;;
20721;SDS011;10522;52.198;9.890;2023-07-16T11:39:57;8.57;;;3.33;;
20721;SDS011;10522;52.198;9.890;2023-07-16T11:42:35;3.77;;;3.27;;
20721;SDS011;10522;52.198;9.890;2023-07-16T11:45:02;8.57;;;3.33;;
20721;SDS011;10522;52.198;9.890;2023-07-16T11:47:28;6.73;;;3.10;;
20721;SDS011;10522;52.198;9.890;2023-07-16T11:49:54;7.60;;;3.63;;
20721;SDS011;10522;52.198;9.890;2023-07-16T11:52:21;5.17;;;3.27;;
20721;SDS011;10522;52.198;9.890;2023-07-16T11:54:57;5.97;;;3.43;;
20721;SDS011;10522;52.198;9.890;2023-07-16T11:57:26;6.50;;;3.23;;
20721;SDS011;10522;52.198;9.890;2023-07-16T11:59:52;7.20;;;3.17;;
20721;SDS011;10522;52.198;9.890;2023-07-16T12:02:20;5.73;;;3.63;;
20721;SDS011;10522;52.198;9.890;2023-07-16T12:04:46;5.70;;;3.10;;
20721;SDS011;10522;52.198;9.890;2023-07-16T12:07:12;7.70;;;3.10;;
20721;SDS011;10522;52.198;9.890;2023-07-16T12:09:37;8.37;;;3.37;;
20721;SDS011;10522;52.198;9.890;2023-07-16T12:12:03;5.83;;;3.30;;
20721;SDS011;10522;52.198;9.890;2023-07-16T12:14:30;7.10;;;3.33;;
20721;SDS011;10522;52.198;9.890;2023-07-16T12:16:55;4.80;;;3.03;;
20721;SDS011;10522;52.198;9.890;2023-07-16T12:19:21;8.73;;;3.23;;
20721;SDS011;10522;52.198;9.890;2023-07-16T12:21:47;5.87;;;2.90;;
20721;SDS011;10522;52.198;9.890;2023-07-16T12:24:12;4.73;;;3.10;;
20721;SDS011;10522;52.198;9.890;2023-07-16T12:26:38;4.90;;;2.97;;
20721;SDS011;10522;52.198;9.890;2023-07-16T12:29:04;4.70;;;3.40;;
20721;SDS011;10522;52.198;9.890;2023-07-16T12:31:30;8.87;;;3.40;;
20721;SDS011;10522;52.198;9.890;2023-07-16T12:33:56;4.33;;;2.97;;
20721;SDS011;10522;52.198;9.890;2023-07-16T12:36:23;5.90;;;3.10;;
20721;SDS011;10522;52.198;9.890;2023-07-16T12:38:48;6.23;;;3.30;;
20721;SDS011;10522;52.198;9.890;2023-07-16T12:41:14;9.30;;;3.23;;
20721;SDS011;10522;52.198;9.890;2023-07-16T12:43:42;9.10;;;3.07;;
20721;SDS011;10522;52.198;9.890;2023-07-16T12:46:08;4.63;;;2.77;;
20721;SDS011;10522;52.198;9.890;2023-07-16T12:48:34;8.33;;;3.17;;
20721;SDS011;10522;52.198;9.890;2023-07-16T12:50:59;3.90;;;2.93;;
20721;SDS011;10522;52.198;9.890;2023-07-16T12:53:25;7.50;;;3.33;;
20721;SDS011;10522;52.198;9.890;2023-07-16T12:55:51;6.87;;;2.93;;
20721;SDS011;10522;52.198;9.890;2023-07-16T12:58:17;6.63;;;3.43;;
20721;SDS011;10522;52.198;9.890;2023-07-16T13:00:43;5.83;;;2.90;;
20721;SDS011;10522;52.198;9.890;2023-07-16T13:03:09;4.53;;;2.97;;
20721;SDS011;10522;52.198;9.890;2023-07-16T13:05:41;5.30;;;2.67;;
20721;SDS011;10522;52.198;9.890;2023-07-16T13:08:07;6.93;;;3.30;;
20721;SDS011;10522;52.198;9.890;2023-07-16T13:10:32;3.90;;;3.10;;
20721;SDS011;10522;52.198;9.890;2023-07-16T13:12:58;4.97;;;2.97;;
20721;SDS011;10522;52.198;9.890;2023-07-16T13:15:24;5.90;;;3.07;;
20721;SDS011;10522;52.198;9.890;2023-07-16T13:17:49;4.37;;;3.03;;
20721;SDS011;10522;52.198;9.890;2023-07-16T13:20:15;4.07;;;2.97;;
20721;SDS011;10522;52.198;9.890;2023-07-16T13:22:42;4.07;;;2.57;;
20721;SDS011;10522;52.198;9.890;2023-07-16T13:25:07;5.50;;;3.20;;
20721;SDS011;10522;52.198;9.890;2023-07-16T13:27:33;5.00;;;3.10;;
20721;SDS011;10522;52.198;9.890;2023-07-16T13:29:59;4.60;;;2.93;;
20721;SDS011;10522;52.198;9.890;2023-07-16T13:32:25;4.90;;;2.90;;
20721;SDS011;10522;52.198;9.890;2023-07-16T13:34:50;6.40;;;3.27;;
20721;SDS011;10522;52.198;9.890;2023-07-16T13:37:16;5.57;;;2.80;;
20721;SDS011;10522;52.198;9.890;2023-07-16T13:39:41;7.10;;;3.30;;
20721;SDS011;10522;52.198;9.890;2023-07-16T13:42:07;6.00;;;3.30;;
20721;SDS011;10522;52.198;9.890;2023-07-16T13:44:33;5.97;;;3.10;;
20721;SDS011;10522;52.198;9.890;2023-07-16T13:46:58;4.20;;;3.10;;
20721;SDS011;10522;52.198;9.890;2023-07-16T13:49:24;4.97;;;3.37;;
20721;SDS011;10522;52.198;9.890;2023-07-16T13:51:50;4.17;;;3.20;;
20721;SDS011;10522;52.198;9.890;2023-07-16T13:54:15;5.73;;;3.13;;
20721;SDS011;10522;52.198;9.890;2023-07-16T13:56:41;7.53;;;3.13;;
20721;SDS011;10522;52.198;9.890;2023-07-16T13:59:07;5.30;;;3.07;;
20721;SDS011;10522;52.198;9.890;2023-07-16T14:01:32;5.53;;;3.50;;
20721;SDS011;10522;52.198;9.890;2023-07-16T14:03:58;3.60;;;3.27;;
20721;SDS011;10522;52.198;9.890;2023-07-16T14:06:24;8.13;;;3.33;;
20721;SDS011;10522;52.198;9.890;2023-07-16T14:08:49;4.70;;;2.83;;
20721;SDS011;10522;52.198;9.890;2023-07-16T14:11:15;6.63;;;3.10;;
20721;SDS011;10522;52.198;9.890;2023-07-16T14:13:43;9.17;;;3.53;;
20721;SDS011;10522;52.198;9.890;2023-07-16T14:16:09;5.50;;;3.47;;
20721;SDS011;10522;52.198;9.890;2023-07-16T14:18:34;6.20;;;3.27;;
20721;SDS011;10522;52.198;9.890;2023-07-16T14:21:00;7.50;;;3.33;;
20721;SDS011;10522;52.198;9.890;2023-07-16T14:23:27;4.03;;;3.17;;
20721;SDS011;10522;52.198;9.890;2023-07-16T14:25:53;5.87;;;3.03;;
20721;SDS011;10522;52.198;9.890;2023-07-16T14:28:18;5.40;;;3.37;;
20721;SDS011;10522;52.198;9.890;2023-07-16T14:30:44;3.87;;;3.07;;
20721;SDS011;10522;52.198;9.890;2023-07-16T14:33:10;5.63;;;3.70;;
20721;SDS011;10522;52.198;9.890;2023-07-16T14:35:35;5.47;;;3.73;;
20721;SDS011;10522;52.198;9.890;2023-07-16T14:38:01;6.67;;;3.80;;
20721;SDS011;10522;52.198;9.890;2023-07-16T14:40:27;6.60;;;4.20;;
20721;SDS011;10522;52.198;9.890;2023-07-16T14:42:52;8.37;;;3.50;;
20721;SDS011;10522;52.198;9.890;2023-07-16T14:45:18;4.50;;;3.33;;
20721;SDS011;10522;52.198;9.890;2023-07-16T14:47:43;6.10;;;3.70;;
20721;SDS011;10522;52.198;9.890;2023-07-16T14:50:09;7.40;;;4.20;;
20721;SDS011;10522;52.198;9.890;2023-07-16T14:52:35;4.00;;;3.23;;